sensor_id;sensor_type;location;lat;lon;timestamp;P1;durP1;ratioP1;P2;durP2;ratioP2
50531;SDS011;36483;37.396;-122.212;2022-12-18T00:02:17;13.18;;;9.05;;
50531;SDS011;36483;37.396;-122.212;2022-12-18T00:04:43;13.32;;;8.45;;
50531;SDS011;36483;37.396;-122.212;2022-12-18T00:07:10;13.77;;;9.07;;
50531;SDS011;36483;37.396;-122.212;2022-12-18T00:09:36;13.90;;;8.80;;
50531;SDS011;36483;37.396;-122.212;2022-12-18T00:12:02;13.43;;;8.00;;
50531;SDS011;36483;37.396;-122.212;2022-12-18T00:14:28;12.30;;;7.70;;
50531;SDS011;36483;37.396;-122.212;2022-12-18T00:16:55;10.35;;;7.57;;
50531;SDS011;36483;37.396;-122.212;2022-12-18T00:19:22;13.07;;;7.97;;
50531;SDS011;36483;37.396;-122.212;2022-12-18T00:21:48;13.27;;;8.45;;
50531;SDS011;36483;37.396;-122.212;2022-12-18T00:24:14;12.18;;;7.78;;
50531;SDS011;36483;37.396;-122.212;2022-12-18T00:26:40;13.55;;;7.70;;
50531;SDS011;36483;37.396;-122.212;2022-12-18T00:29:12;9.60;;;6.78;;
50531;SDS011;36483;37.396;-122.212;2022-12-18T00:31:39;12.52;;;8.07;;
50531;SDS011;36483;37.396;-122.212;2022-12-18T00:34:06;14.60;;;8.48;;
50531;SDS011;36483;37.396;-122.212;2022-12-18T00:36:35;11.43;;;7.18;;
50531;SDS011;36483;37.396;-122.212;2022-12-18T00:39:03;12.45;;;8.00;;
50531;SDS011;36483;37.396;-122.212;2022-12-18T00:41:30;11.02;;;7.40;;
50531;SDS011;36483;37.396;-122.212;2022-12-18T00:44:15;11.48;;;7.32;;
50531;SDS011;36483;37.396;-122.212;2022-12-18T00:46:42;12.52;;;8.27;;
50531;SDS011;36483;37.396;-122.212;2022-12-18T00:49:09;13.80;;;8.32;;
50531;SDS011;36483;37.396;-122.212;2022-12-18T00:51:35;14.55;;;8.55;;
50531;SDS011;36483;37.396;-122.212;2022-12-18T00:54:01;15.52;;;9.27;;
50531;SDS011;36483;37.396;-122.212;2022-12-18T00:56:28;12.70;;;8.48;;
50531;SDS011;36483;37.396;-122.212;2022-12-18T00:58:54;12.50;;;8.63;;
50531;SDS011;36483;37.396;-122.212;2022-12-18T01:01:20;13.77;;;8.35;;
50531;SDS011;36483;37.396;-122.212;2022-12-18T01:03:46;13.10;;;7.78;;
50531;SDS011;36483;37.396;-122.212;2022-12-18T01:06:13;11.32;;;8.07;;
50531;SDS011;36483;37.396;-122.212;2022-12-18T01:08:40;11.73;;;8.07;;
50531;SDS011;36483;37.396;-122.212;2022-12-18T01:11:10;12.23;;;8.27;;
50531;SDS011;36483;37.396;-122.212;2022-12-18T01:13:37;13.82;;;8.20;;
50531;SDS011;36483;37.396;-122.212;2022-12-18T01:16:03;10.63;;;7.45;;
50531;SDS011;36483;37.396;-122.212;2022-12-18T01:18:30;11.32;;;7.47;;
50531;SDS011;36483;37.396;-122.212;2022-12-18T01:20:56;11.18;;;7.25;;
50531;SDS011;36483;37.396;-122.212;2022-12-18T01:23:22;11.10;;;7.68;;
50531;SDS011;36483;37.396;-122.212;2022-12-18T01:25:48;10.82;;;6.97;;
50531;SDS011;36483;37.396;-122.212;2022-12-18T01:28:14;10.35;;;6.93;;
50531;SDS011;36483;37.396;-122.212;2022-12-18T01:30:40;10.90;;;7.10;;
50531;SDS011;36483;37.396;-122.212;2022-12-18T01:33:07;11.55;;;7.35;;
50531;SDS011;36483;37.396;-122.212;2022-12-18T01:35:33;10.10;;;6.72;;
50531;SDS011;36483;37.396;-122.212;2022-12-18T01:37:59;11.43;;;7.72;;
50531;SDS011;36483;37.396;-122.212;2022-12-18T01:40:25;10.45;;;7.50;;
50531;SDS011;36483;37.396;-122.212;2022-12-18T01:42:51;11.07;;;7.18;;
50531;SDS011;36483;37.396;-122.212;2022-12-18T01:47:48;11.20;;;6.90;;
50531;SDS011;36483;37.396;-122.212;2022-12-18T01:52:47;10.70;;;6.95;;
50531;SDS011;36483;37.396;-122.212;2022-12-18T01:55:44;9.50;;;6.38;;
50531;SDS011;36483;37.396;-122.212;2022-12-18T01:58:14;9.57;;;6.22;;
50531;SDS011;36483;37.396;-122.212;2022-12-18T02:00:41;11.02;;;5.97;;
50531;SDS011;36483;37.396;-122.212;2022-12-18T02:03:07;11.73;;;6.47;;
50531;SDS011;36483;37.396;-122.212;2022-12-18T02:05:44;8.52;;;5.57;;
50531;SDS011;36483;37.396;-122.212;2022-12-18T02:10:46;8.98;;;5.85;;
50531;SDS011;36483;37.396;-122.212;2022-12-18T02:13:27;8.65;;;5.63;;
50531;SDS011;36483;37.396;-122.212;2022-12-18T02:16:08;8.27;;;5.78;;
50531;SDS011;36483;37.396;-122.212;2022-12-18T02:18:48;8.30;;;5.75;;
50531;SDS011;36483;37.396;-122.212;2022-12-18T02:27:05;8.77;;;6.10;;
50531;SDS011;36483;37.396;-122.212;2022-12-18T02:29:37;7.45;;;5.47;;
50531;SDS011;36483;37.396;-122.212;2022-12-18T02:32:09;8.85;;;5.50;;
50531;SDS011;36483;37.396;-122.212;2022-12-18T02:34:39;11.82;;;5.47;;
50531;SDS011;36483;37.396;-122.212;2022-12-18T02:37:07;8.48;;;5.20;;
50531;SDS011;36483;37.396;-122.212;2022-12-18T02:39:38;7.80;;;5.40;;
50531;SDS011;36483;37.396;-122.212;2022-12-18T02:42:05;7.85;;;5.65;;
50531;SDS011;36483;37.396;-122.212;2022-12-18T02:44:35;9.48;;;5.28;;
50531;SDS011;36483;37.396;-122.212;2022-12-18T02:47:09;8.35;;;5.57;;
50531;SDS011;36483;37.396;-122.212;2022-12-18T02:52:19;8.40;;;5.72;;
50531;SDS011;36483;37.396;-122.212;2022-12-18T02:57:54;9.67;;;6.33;;
50531;SDS011;36483;37.396;-122.212;2022-12-18T03:00:43;8.23;;;5.65;;
50531;SDS011;36483;37.396;-122.212;2022-12-18T03:03:38;9.00;;;6.18;;
50531;SDS011;36483;37.396;-122.212;2022-12-18T03:06:07;9.50;;;6.22;;
50531;SDS011;36483;37.396;-122.212;2022-12-18T03:08:37;10.68;;;6.10;;
50531;SDS011;36483;37.396;-122.212;2022-12-18T03:11:08;7.93;;;5.53;;
50531;SDS011;36483;37.396;-122.212;2022-12-18T03:13:37;8.43;;;6.32;;
50531;SDS011;36483;37.396;-122.212;2022-12-18T03:16:28;9.82;;;5.85;;
50531;SDS011;36483;37.396;-122.212;2022-12-18T03:18:55;8.77;;;5.75;;
50531;SDS011;36483;37.396;-122.212;2022-12-18T03:21:28;9.05;;;6.18;;
50531;SDS011;36483;37.396;-122.212;2022-12-18T03:24:01;9.50;;;5.97;;
50531;SDS011;36483;37.396;-122.212;2022-12-18T03:26:28;7.65;;;5.75;;
50531;SDS011;36483;37.396;-122.212;2022-12-18T03:28:57;9.18;;;6.00;;
50531;SDS011;36483;37.396;-122.212;2022-12-18T03:31:26;8.43;;;5.78;;
50531;SDS011;36483;37.396;-122.212;2022-12-18T03:33:55;8.82;;;6.07;;
50531;SDS011;36483;37.396;-122.212;2022-12-18T03:36:25;8.05;;;5.82;;
50531;SDS011;36483;37.396;-122.212;2022-12-18T03:38:51;10.65;;;6.22;;
50531;SDS011;36483;37.396;-122.212;2022-12-18T03:41:29;9.48;;;6.15;;
50531;SDS011;36483;37.396;-122.212;2022-12-18T03:49:17;7.40;;;5.75;;
50531;SDS011;36483;37.396;-122.212;2022-12-18T03:52:11;8.73;;;6.20;;
50531;SDS011;36483;37.396;-122.212;2022-12-18T03:54:46;9.48;;;6.55;;
50531;SDS011;36483;37.396;-122.212;2022-12-18T03:57:14;9.70;;;6.35;;
50531;SDS011;36483;37.396;-122.212;2022-12-18T03:59:44;8.85;;;6.80;;
50531;SDS011;36483;37.396;-122.212;2022-12-18T04:02:12;9.13;;;6.22;;
50531;SDS011;36483;37.396;-122.212;2022-12-18T04:04:40;8.32;;;6.00;;
50531;SDS011;36483;37.396;-122.212;2022-12-18T04:07:07;11.00;;;6.30;;
50531;SDS011;36483;37.396;-122.212;2022-12-18T04:09:34;8.23;;;5.90;;
50531;SDS011;36483;37.396;-122.212;2022-12-18T04:12:02;8.15;;;5.50;;
50531;SDS011;36483;37.396;-122.212;2022-12-18T04:14:28;8.38;;;5.82;;
50531;SDS011;36483;37.396;-122.212;2022-12-18T04:16:54;8.13;;;5.82;;
50531;SDS011;36483;37.396;-122.212;2022-12-18T04:19:20;11.05;;;6.30;;
50531;SDS011;36483;37.396;-122.212;2022-12-18T04:21:46;9.05;;;6.00;;
50531;SDS011;36483;37.396;-122.212;2022-12-18T04:24:12;8.75;;;6.18;;
50531;SDS011;36483;37.396;-122.212;2022-12-18T04:26:38;10.40;;;6.50;;
50531;SDS011;36483;37.396;-122.212;2022-12-18T04:29:04;10.10;;;6.20;;
50531;SDS011;36483;37.396;-122.212;2022-12-18T04:31:30;8.50;;;6.10;;
50531;SDS011;36483;37.396;-122.212;2022-12-18T04:33:57;9.02;;;6.35;;
50531;SDS011;36483;37.396;-122.212;2022-12-18T04:36:23;10.18;;;6.35;;
50531;SDS011;36483;37.396;-122.212;2022-12-18T04:38:49;9.40;;;6.13;;
50531;SDS011;36483;37.396;-122.212;2022-12-18T04:41:15;9.68;;;6.18;;
50531;SDS011;36483;37.396;-122.212;2022-12-18T04:43:41;10.70;;;6.82;;
50531;SDS011;36483;37.396;-122.212;2022-12-18T04:46:07;10.88;;;6.60;;
50531;SDS011;36483;37.396;-122.212;2022-12-18T04:48:34;8.93;;;6.60;;
50531;SDS011;36483;37.396;-122.212;2022-12-18T04:51:01;12.02;;;6.18;;
50531;SDS011;36483;37.396;-122.212;2022-12-18T04:53:27;8.52;;;6.00;;
50531;SDS011;36483;37.396;-122.212;2022-12-18T04:56:06;9.05;;;6.10;;
50531;SDS011;36483;37.396;-122.212;2022-12-18T04:58:36;8.57;;;6.22;;
50531;SDS011;36483;37.396;-122.212;2022-12-18T05:01:03;8.95;;;6.47;;
50531;SDS011;36483;37.396;-122.212;2022-12-18T05:03:30;8.80;;;6.10;;
50531;SDS011;36483;37.396;-122.212;2022-12-18T05:05:56;8.23;;;5.82;;
50531;SDS011;36483;37.396;-122.212;2022-12-18T05:08:22;8.27;;;5.72;;
50531;SDS011;36483;37.396;-122.212;2022-12-18T05:10:48;8.95;;;6.05;;
50531;SDS011;36483;37.396;-122.212;2022-12-18T05:13:14;7.70;;;5.70;;
50531;SDS011;36483;37.396;-122.212;2022-12-18T05:15:40;8.20;;;6.20;;
50531;SDS011;36483;37.396;-122.212;2022-12-18T05:18:07;11.80;;;6.38;;
50531;SDS011;36483;37.396;-122.212;2022-12-18T05:20:33;9.98;;;5.70;;
50531;SDS011;36483;37.396;-122.212;2022-12-18T05:22:59;8.95;;;5.60;;
50531;SDS011;36483;37.396;-122.212;2022-12-18T05:25:25;7.90;;;5.90;;
50531;SDS011;36483;37.396;-122.212;2022-12-18T05:27:52;9.05;;;6.10;;
50531;SDS011;36483;37.396;-122.212;2022-12-18T05:30:18;8.35;;;5.85;;
50531;SDS011;36483;37.396;-122.212;2022-12-18T05:32:44;7.60;;;5.85;;
50531;SDS011;36483;37.396;-122.212;2022-12-18T05:35:10;8.80;;;5.85;;
50531;SDS011;36483;37.396;-122.212;2022-12-18T05:37:36;8.90;;;6.10;;
50531;SDS011;36483;37.396;-122.212;2022-12-18T05:40:03;8.70;;;5.70;;
50531;SDS011;36483;37.396;-122.212;2022-12-18T05:42:30;9.05;;;6.07;;
50531;SDS011;36483;37.396;-122.212;2022-12-18T05:44:56;8.68;;;5.97;;
50531;SDS011;36483;37.396;-122.212;2022-12-18T05:47:22;8.95;;;5.78;;
50531;SDS011;36483;37.396;-122.212;2022-12-18T05:49:48;8.50;;;5.82;;
50531;SDS011;36483;37.396;-122.212;2022-12-18T05:52:14;8.60;;;6.20;;
50531;SDS011;36483;37.396;-122.212;2022-12-18T05:54:41;9.85;;;5.78;;
50531;SDS011;36483;37.396;-122.212;2022-12-18T05:57:07;9.30;;;6.18;;
50531;SDS011;36483;37.396;-122.212;2022-12-18T05:59:33;8.38;;;6.20;;
50531;SDS011;36483;37.396;-122.212;2022-12-18T06:01:59;8.90;;;6.20;;
50531;SDS011;36483;37.396;-122.212;2022-12-18T06:04:26;7.32;;;5.35;;
50531;SDS011;36483;37.396;-122.212;2022-12-18T06:06:53;11.05;;;6.50;;
50531;SDS011;36483;37.396;-122.212;2022-12-18T06:09:20;8.65;;;5.90;;
50531;SDS011;36483;37.396;-122.212;2022-12-18T06:11:46;8.57;;;5.90;;
50531;SDS011;36483;37.396;-122.212;2022-12-18T06:14:12;9.73;;;6.32;;
50531;SDS011;36483;37.396;-122.212;2022-12-18T06:16:38;8.35;;;5.93;;
50531;SDS011;36483;37.396;-122.212;2022-12-18T06:19:05;9.15;;;6.22;;
50531;SDS011;36483;37.396;-122.212;2022-12-18T06:21:31;8.05;;;6.00;;
50531;SDS011;36483;37.396;-122.212;2022-12-18T06:23:57;9.85;;;7.03;;
50531;SDS011;36483;37.396;-122.212;2022-12-18T06:26:24;9.15;;;6.25;;
50531;SDS011;36483;37.396;-122.212;2022-12-18T06:28:50;10.00;;;6.55;;
50531;SDS011;36483;37.396;-122.212;2022-12-18T06:31:16;9.80;;;6.22;;
50531;SDS011;36483;37.396;-122.212;2022-12-18T06:33:42;10.30;;;6.15;;
50531;SDS011;36483;37.396;-122.212;2022-12-18T06:36:11;7.82;;;5.72;;
50531;SDS011;36483;37.396;-122.212;2022-12-18T06:38:41;8.52;;;6.28;;
50531;SDS011;36483;37.396;-122.212;2022-12-18T06:41:12;8.20;;;5.97;;
50531;SDS011;36483;37.396;-122.212;2022-12-18T06:46:06;8.65;;;5.80;;
50531;SDS011;36483;37.396;-122.212;2022-12-18T06:48:32;9.55;;;6.25;;
50531;SDS011;36483;37.396;-122.212;2022-12-18T06:50:58;8.52;;;5.95;;
50531;SDS011;36483;37.396;-122.212;2022-12-18T06:53:24;8.18;;;5.82;;
50531;SDS011;36483;37.396;-122.212;2022-12-18T06:55:51;8.25;;;5.75;;
50531;SDS011;36483;37.396;-122.212;2022-12-18T06:58:17;7.85;;;6.03;;
50531;SDS011;36483;37.396;-122.212;2022-12-18T07:00:43;7.90;;;5.88;;
50531;SDS011;36483;37.396;-122.212;2022-12-18T07:03:10;9.25;;;6.05;;
50531;SDS011;36483;37.396;-122.212;2022-12-18T07:05:39;8.80;;;5.30;;
50531;SDS011;36483;37.396;-122.212;2022-12-18T07:08:06;10.13;;;5.82;;
50531;SDS011;36483;37.396;-122.212;2022-12-18T07:10:32;8.38;;;5.40;;
50531;SDS011;36483;37.396;-122.212;2022-12-18T07:12:58;10.25;;;6.25;;
50531;SDS011;36483;37.396;-122.212;2022-12-18T07:15:24;9.90;;;6.20;;
50531;SDS011;36483;37.396;-122.212;2022-12-18T07:17:50;8.73;;;6.35;;
50531;SDS011;36483;37.396;-122.212;2022-12-18T07:20:16;8.85;;;6.28;;
50531;SDS011;36483;37.396;-122.212;2022-12-18T07:22:42;9.35;;;6.05;;
50531;SDS011;36483;37.396;-122.212;2022-12-18T07:25:08;7.97;;;5.88;;
50531;SDS011;36483;37.396;-122.212;2022-12-18T07:27:35;9.15;;;5.97;;
50531;SDS011;36483;37.396;-122.212;2022-12-18T07:30:01;8.48;;;5.93;;
50531;SDS011;36483;37.396;-122.212;2022-12-18T07:32:27;8.55;;;5.53;;
50531;SDS011;36483;37.396;-122.212;2022-12-18T07:34:53;8.40;;;5.82;;
50531;SDS011;36483;37.396;-122.212;2022-12-18T07:37:19;7.65;;;5.63;;
50531;SDS011;36483;37.396;-122.212;2022-12-18T07:39:45;10.05;;;5.85;;
50531;SDS011;36483;37.396;-122.212;2022-12-18T07:42:11;8.88;;;5.55;;
50531;SDS011;36483;37.396;-122.212;2022-12-18T07:44:56;8.57;;;5.53;;
50531;SDS011;36483;37.396;-122.212;2022-12-18T07:47:22;7.90;;;5.85;;
50531;SDS011;36483;37.396;-122.212;2022-12-18T07:49:49;9.77;;;6.15;;
50531;SDS011;36483;37.396;-122.212;2022-12-18T07:52:15;8.25;;;6.13;;
50531;SDS011;36483;37.396;-122.212;2022-12-18T07:54:41;9.05;;;6.53;;
50531;SDS011;36483;37.396;-122.212;2022-12-18T07:57:07;8.07;;;5.85;;
50531;SDS011;36483;37.396;-122.212;2022-12-18T07:59:34;7.80;;;5.90;;
50531;SDS011;36483;37.396;-122.212;2022-12-18T08:02:00;8.20;;;5.90;;
50531;SDS011;36483;37.396;-122.212;2022-12-18T08:04:27;9.48;;;6.25;;
50531;SDS011;36483;37.396;-122.212;2022-12-18T08:06:53;12.43;;;6.18;;
50531;SDS011;36483;37.396;-122.212;2022-12-18T08:09:19;9.55;;;6.65;;
50531;SDS011;36483;37.396;-122.212;2022-12-18T08:11:45;10.15;;;6.00;;
50531;SDS011;36483;37.396;-122.212;2022-12-18T08:14:11;14.00;;;6.63;;
50531;SDS011;36483;37.396;-122.212;2022-12-18T08:16:37;8.65;;;6.25;;
50531;SDS011;36483;37.396;-122.212;2022-12-18T08:19:04;10.60;;;6.28;;
50531;SDS011;36483;37.396;-122.212;2022-12-18T08:21:30;8.20;;;5.68;;
50531;SDS011;36483;37.396;-122.212;2022-12-18T08:23:57;8.43;;;5.57;;
50531;SDS011;36483;37.396;-122.212;2022-12-18T08:26:25;9.45;;;5.60;;
50531;SDS011;36483;37.396;-122.212;2022-12-18T08:28:53;9.45;;;5.78;;
50531;SDS011;36483;37.396;-122.212;2022-12-18T08:31:20;7.97;;;5.93;;
50531;SDS011;36483;37.396;-122.212;2022-12-18T08:33:50;10.02;;;5.75;;
50531;SDS011;36483;37.396;-122.212;2022-12-18T08:36:17;9.85;;;5.47;;
50531;SDS011;36483;37.396;-122.212;2022-12-18T08:38:44;8.88;;;6.10;;
50531;SDS011;36483;37.396;-122.212;2022-12-18T08:41:12;9.32;;;5.93;;
50531;SDS011;36483;37.396;-122.212;2022-12-18T08:43:39;10.48;;;5.40;;
50531;SDS011;36483;37.396;-122.212;2022-12-18T08:46:25;7.60;;;5.60;;
50531;SDS011;36483;37.396;-122.212;2022-12-18T08:48:52;8.85;;;5.32;;
50531;SDS011;36483;37.396;-122.212;2022-12-18T08:51:19;7.45;;;5.05;;
50531;SDS011;36483;37.396;-122.212;2022-12-18T08:53:46;8.02;;;5.43;;
50531;SDS011;36483;37.396;-122.212;2022-12-18T08:56:12;8.65;;;5.18;;
50531;SDS011;36483;37.396;-122.212;2022-12-18T08:58:39;7.57;;;5.20;;
50531;SDS011;36483;37.396;-122.212;2022-12-18T09:01:07;8.43;;;5.45;;
50531;SDS011;36483;37.396;-122.212;2022-12-18T09:03:34;7.88;;;5.13;;
50531;SDS011;36483;37.396;-122.212;2022-12-18T09:06:01;7.95;;;5.32;;
50531;SDS011;36483;37.396;-122.212;2022-12-18T09:08:27;8.07;;;5.00;;
50531;SDS011;36483;37.396;-122.212;2022-12-18T09:10:53;8.10;;;5.10;;
50531;SDS011;36483;37.396;-122.212;2022-12-18T09:13:20;6.80;;;4.55;;
50531;SDS011;36483;37.396;-122.212;2022-12-18T09:15:48;8.77;;;5.07;;
50531;SDS011;36483;37.396;-122.212;2022-12-18T09:18:16;7.28;;;5.47;;
50531;SDS011;36483;37.396;-122.212;2022-12-18T09:20:43;10.73;;;5.45;;
50531;SDS011;36483;37.396;-122.212;2022-12-18T09:23:09;7.30;;;4.80;;
50531;SDS011;36483;37.396;-122.212;2022-12-18T09:25:35;8.45;;;5.35;;
50531;SDS011;36483;37.396;-122.212;2022-12-18T09:28:04;7.90;;;5.60;;
50531;SDS011;36483;37.396;-122.212;2022-12-18T09:30:31;7.45;;;5.28;;
50531;SDS011;36483;37.396;-122.212;2022-12-18T09:32:59;9.93;;;5.82;;
50531;SDS011;36483;37.396;-122.212;2022-12-18T09:35:26;7.45;;;4.97;;
50531;SDS011;36483;37.396;-122.212;2022-12-18T09:37:53;6.35;;;4.72;;
50531;SDS011;36483;37.396;-122.212;2022-12-18T09:40:21;7.63;;;5.40;;
50531;SDS011;36483;37.396;-122.212;2022-12-18T09:42:52;9.98;;;5.20;;
50531;SDS011;36483;37.396;-122.212;2022-12-18T09:45:21;5.95;;;4.63;;
50531;SDS011;36483;37.396;-122.212;2022-12-18T09:47:48;7.68;;;5.35;;
50531;SDS011;36483;37.396;-122.212;2022-12-18T09:52:59;6.82;;;5.03;;
50531;SDS011;36483;37.396;-122.212;2022-12-18T09:58:17;8.10;;;5.60;;
50531;SDS011;36483;37.396;-122.212;2022-12-18T10:00:45;7.32;;;5.22;;
50531;SDS011;36483;37.396;-122.212;2022-12-18T10:03:14;8.85;;;5.65;;
50531;SDS011;36483;37.396;-122.212;2022-12-18T10:20:13;8.70;;;4.95;;
50531;SDS011;36483;37.396;-122.212;2022-12-18T10:22:57;6.60;;;4.82;;
50531;SDS011;36483;37.396;-122.212;2022-12-18T10:28:25;9.10;;;5.32;;
50531;SDS011;36483;37.396;-122.212;2022-12-18T10:30:52;7.00;;;4.78;;
50531;SDS011;36483;37.396;-122.212;2022-12-18T10:33:19;8.57;;;5.00;;
50531;SDS011;36483;37.396;-122.212;2022-12-18T10:35:48;8.45;;;5.00;;
50531;SDS011;36483;37.396;-122.212;2022-12-18T10:40:59;7.85;;;5.20;;
50531;SDS011;36483;37.396;-122.212;2022-12-18T10:43:29;7.65;;;4.90;;
50531;SDS011;36483;37.396;-122.212;2022-12-18T10:46:01;9.32;;;5.95;;
50531;SDS011;36483;37.396;-122.212;2022-12-18T10:48:28;8.93;;;5.20;;
50531;SDS011;36483;37.396;-122.212;2022-12-18T10:50:55;8.45;;;5.03;;
50531;SDS011;36483;37.396;-122.212;2022-12-18T10:53:26;7.20;;;4.68;;
50531;SDS011;36483;37.396;-122.212;2022-12-18T10:55:54;6.65;;;4.82;;
50531;SDS011;36483;37.396;-122.212;2022-12-18T10:58:26;8.35;;;5.43;;
50531;SDS011;36483;37.396;-122.212;2022-12-18T11:06:21;8.18;;;5.47;;
50531;SDS011;36483;37.396;-122.212;2022-12-18T11:11:50;7.53;;;5.05;;
50531;SDS011;36483;37.396;-122.212;2022-12-18T11:14:23;9.13;;;5.07;;
50531;SDS011;36483;37.396;-122.212;2022-12-18T11:16:51;8.90;;;5.40;;
50531;SDS011;36483;37.396;-122.212;2022-12-18T11:19:20;7.18;;;5.07;;
50531;SDS011;36483;37.396;-122.212;2022-12-18T11:22:18;7.45;;;4.75;;
50531;SDS011;36483;37.396;-122.212;2022-12-18T11:24:56;9.18;;;5.20;;
50531;SDS011;36483;37.396;-122.212;2022-12-18T11:27:23;7.80;;;5.03;;
50531;SDS011;36483;37.396;-122.212;2022-12-18T11:29:49;8.40;;;5.05;;
50531;SDS011;36483;37.396;-122.212;2022-12-18T11:38:04;8.63;;;5.40;;
50531;SDS011;36483;37.396;-122.212;2022-12-18T11:40:42;8.07;;;5.32;;
50531;SDS011;36483;37.396;-122.212;2022-12-18T11:43:13;8.48;;;4.97;;
50531;SDS011;36483;37.396;-122.212;2022-12-18T11:48:18;8.02;;;5.45;;
50531;SDS011;36483;37.396;-122.212;2022-12-18T11:50:55;7.60;;;5.60;;
50531;SDS011;36483;37.396;-122.212;2022-12-18T11:53:23;8.52;;;5.47;;
50531;SDS011;36483;37.396;-122.212;2022-12-18T12:04:37;8.10;;;5.10;;
50531;SDS011;36483;37.396;-122.212;2022-12-18T12:07:19;8.60;;;5.80;;
50531;SDS011;36483;37.396;-122.212;2022-12-18T12:18:08;8.55;;;5.13;;
50531;SDS011;36483;37.396;-122.212;2022-12-18T12:32:28;9.38;;;5.03;;
50531;SDS011;36483;37.396;-122.212;2022-12-18T12:35:29;8.05;;;5.15;;
50531;SDS011;36483;37.396;-122.212;2022-12-18T12:38:09;7.65;;;5.25;;
50531;SDS011;36483;37.396;-122.212;2022-12-18T12:40:58;9.68;;;5.80;;
50531;SDS011;36483;37.396;-122.212;2022-12-18T12:46:05;9.20;;;5.78;;
50531;SDS011;36483;37.396;-122.212;2022-12-18T12:48:35;10.50;;;6.32;;
50531;SDS011;36483;37.396;-122.212;2022-12-18T12:51:11;9.10;;;5.68;;
50531;SDS011;36483;37.396;-122.212;2022-12-18T12:53:38;12.20;;;5.93;;
50531;SDS011;36483;37.396;-122.212;2022-12-18T12:56:04;9.68;;;5.68;;
50531;SDS011;36483;37.396;-122.212;2022-12-18T12:58:37;8.32;;;5.28;;
50531;SDS011;36483;37.396;-122.212;2022-12-18T13:04:15;8.32;;;5.35;;
50531;SDS011;36483;37.396;-122.212;2022-12-18T13:09:29;8.25;;;5.18;;
50531;SDS011;36483;37.396;-122.212;2022-12-18T13:12:03;8.32;;;5.40;;
50531;SDS011;36483;37.396;-122.212;2022-12-18T13:14:49;8.07;;;5.38;;
50531;SDS011;36483;37.396;-122.212;2022-12-18T13:20:07;8.80;;;5.35;;
50531;SDS011;36483;37.396;-122.212;2022-12-18T13:25:04;8.63;;;5.40;;
50531;SDS011;36483;37.396;-122.212;2022-12-18T13:35:41;9.40;;;5.55;;
50531;SDS011;36483;37.396;-122.212;2022-12-18T13:40:57;9.23;;;5.35;;
50531;SDS011;36483;37.396;-122.212;2022-12-18T13:46:01;10.50;;;5.97;;
50531;SDS011;36483;37.396;-122.212;2022-12-18T13:48:52;7.68;;;5.45;;
50531;SDS011;36483;37.396;-122.212;2022-12-18T13:51:20;10.93;;;6.13;;
50531;SDS011;36483;37.396;-122.212;2022-12-18T13:56:54;6.70;;;4.95;;
50531;SDS011;36483;37.396;-122.212;2022-12-18T13:59:21;9.63;;;5.68;;
50531;SDS011;36483;37.396;-122.212;2022-12-18T14:04:19;9.15;;;5.47;;
50531;SDS011;36483;37.396;-122.212;2022-12-18T14:09:25;9.52;;;5.65;;
50531;SDS011;36483;37.396;-122.212;2022-12-18T14:12:00;7.65;;;5.53;;
50531;SDS011;36483;37.396;-122.212;2022-12-18T14:14:46;8.23;;;5.68;;
50531;SDS011;36483;37.396;-122.212;2022-12-18T14:17:13;9.02;;;5.80;;
50531;SDS011;36483;37.396;-122.212;2022-12-18T14:19:47;9.02;;;5.50;;
50531;SDS011;36483;37.396;-122.212;2022-12-18T14:22:15;7.97;;;5.55;;
50531;SDS011;36483;37.396;-122.212;2022-12-18T14:24:46;10.32;;;6.15;;
50531;SDS011;36483;37.396;-122.212;2022-12-18T14:27:19;8.02;;;5.35;;
50531;SDS011;36483;37.396;-122.212;2022-12-18T14:29:47;7.95;;;5.78;;
50531;SDS011;36483;37.396;-122.212;2022-12-18T14:32:14;9.43;;;5.72;;
50531;SDS011;36483;37.396;-122.212;2022-12-18T14:34:45;10.65;;;5.82;;
50531;SDS011;36483;37.396;-122.212;2022-12-18T14:37:13;7.82;;;5.72;;
50531;SDS011;36483;37.396;-122.212;2022-12-18T14:39:40;10.77;;;6.20;;
50531;SDS011;36483;37.396;-122.212;2022-12-18T14:42:24;8.98;;;5.50;;
50531;SDS011;36483;37.396;-122.212;2022-12-18T14:47:56;8.43;;;5.40;;
50531;SDS011;36483;37.396;-122.212;2022-12-18T14:50:22;10.13;;;5.68;;
50531;SDS011;36483;37.396;-122.212;2022-12-18T14:52:49;10.25;;;5.50;;
50531;SDS011;36483;37.396;-122.212;2022-12-18T14:55:16;7.88;;;5.60;;
50531;SDS011;36483;37.396;-122.212;2022-12-18T14:57:43;8.27;;;5.25;;
50531;SDS011;36483;37.396;-122.212;2022-12-18T15:00:17;9.52;;;5.38;;
50531;SDS011;36483;37.396;-122.212;2022-12-18T15:02:49;9.57;;;5.57;;
50531;SDS011;36483;37.396;-122.212;2022-12-18T15:07:53;10.85;;;5.38;;
50531;SDS011;36483;37.396;-122.212;2022-12-18T15:10:22;10.77;;;5.80;;
50531;SDS011;36483;37.396;-122.212;2022-12-18T15:12:49;8.98;;;5.53;;
50531;SDS011;36483;37.396;-122.212;2022-12-18T15:20:55;11.88;;;5.82;;
50531;SDS011;36483;37.396;-122.212;2022-12-18T15:23:25;8.82;;;5.75;;
50531;SDS011;36483;37.396;-122.212;2022-12-18T15:25:55;8.20;;;4.95;;
50531;SDS011;36483;37.396;-122.212;2022-12-18T15:28:36;11.23;;;5.68;;
50531;SDS011;36483;37.396;-122.212;2022-12-18T15:33:45;8.95;;;5.82;;
50531;SDS011;36483;37.396;-122.212;2022-12-18T15:36:18;11.48;;;6.18;;
50531;SDS011;36483;37.396;-122.212;2022-12-18T15:38:48;8.65;;;5.32;;
50531;SDS011;36483;37.396;-122.212;2022-12-18T15:41:19;10.18;;;6.20;;
50531;SDS011;36483;37.396;-122.212;2022-12-18T15:43:47;10.05;;;6.65;;
50531;SDS011;36483;37.396;-122.212;2022-12-18T15:46:16;8.68;;;6.10;;
50531;SDS011;36483;37.396;-122.212;2022-12-18T15:48:45;9.60;;;5.70;;
50531;SDS011;36483;37.396;-122.212;2022-12-18T15:51:16;10.95;;;6.63;;
50531;SDS011;36483;37.396;-122.212;2022-12-18T15:53:51;9.07;;;6.05;;
50531;SDS011;36483;37.396;-122.212;2022-12-18T15:56:19;10.35;;;6.30;;
50531;SDS011;36483;37.396;-122.212;2022-12-18T15:59:10;7.97;;;5.25;;
50531;SDS011;36483;37.396;-122.212;2022-12-18T16:01:37;10.10;;;6.35;;
50531;SDS011;36483;37.396;-122.212;2022-12-18T16:04:04;9.25;;;5.90;;
50531;SDS011;36483;37.396;-122.212;2022-12-18T16:06:30;8.45;;;5.65;;
50531;SDS011;36483;37.396;-122.212;2022-12-18T16:08:56;9.70;;;5.93;;
50531;SDS011;36483;37.396;-122.212;2022-12-18T16:11:29;10.07;;;5.88;;
50531;SDS011;36483;37.396;-122.212;2022-12-18T16:16:47;10.77;;;5.95;;
50531;SDS011;36483;37.396;-122.212;2022-12-18T16:19:14;8.57;;;5.82;;
50531;SDS011;36483;37.396;-122.212;2022-12-18T16:21:41;11.05;;;6.10;;
50531;SDS011;36483;37.396;-122.212;2022-12-18T16:24:18;9.25;;;6.32;;
50531;SDS011;36483;37.396;-122.212;2022-12-18T16:26:48;12.23;;;6.43;;
50531;SDS011;36483;37.396;-122.212;2022-12-18T16:29:16;11.75;;;6.53;;
50531;SDS011;36483;37.396;-122.212;2022-12-18T16:31:43;11.05;;;7.20;;
50531;SDS011;36483;37.396;-122.212;2022-12-18T16:34:10;9.80;;;7.00;;
50531;SDS011;36483;37.396;-122.212;2022-12-18T16:36:52;9.48;;;6.93;;
50531;SDS011;36483;37.396;-122.212;2022-12-18T16:39:22;12.50;;;7.38;;
50531;SDS011;36483;37.396;-122.212;2022-12-18T16:41:48;13.77;;;7.18;;
50531;SDS011;36483;37.396;-122.212;2022-12-18T16:44:14;11.70;;;7.22;;
50531;SDS011;36483;37.396;-122.212;2022-12-18T16:46:41;15.02;;;7.68;;
50531;SDS011;36483;37.396;-122.212;2022-12-18T16:49:14;12.25;;;7.80;;